Time,TemperatureF,DewpointF,PressureIn,WindDirection,WindDirectionDegrees,WindSpeedMPH,WindSpeedGustMPH,Humidity,HourlyPrecipIn,Conditions,Clouds,dailyrainin,SoftwareType,DateUTC
2013-02-10 00:00:00,36.3,29.5,29.67,WNW,288,2.2,2.2,76,0.00,,BKN150,0.00,VWS V14.01,2013-02-10 06:00:00,
2013-02-10 00:05:00,36.7,29.2,29.67,South,170,0.0,6.3,74,0.00,,BKN150,0.00,VWS V14.01,2013-02-10 06:05:00,
2013-02-10 00:10:00,36.5,29.3,29.67,South,169,2.7,6.3,75,0.00,,BKN150,0.00,VWS V14.01,2013-02-10 06:10:00,
2013-02-10 00:15:00,36.7,29.2,29.67,SSW,208,0.0,6.3,74,0.00,,BKN150,0.00,VWS V14.01,2013-02-10 06:15:00,
2013-02-10 00:20:00,36.7,29.2,29.67,South,180,0.0,6.3,74,0.00,,BKN150,0.00,VWS V14.01,2013-02-10 06:20:00,
2013-02-10 00:25:00,36.7,29.2,29.67,WSW,245,0.0,6.3,74,0.00,,BKN150,0.00,VWS V14.01,2013-02-10 06:25:00,
2013-02-10 00:30:00,36.7,29.2,29.67,SSW,199,0.0,0.0,74,0.00,,BKN150,0.00,VWS V14.01,2013-02-10 06:30:00,
2013-02-10 00:35:00,36.5,29.0,29.67,SSE,155,0.0,0.0,74,0.00,,BKN150,0.00,VWS V14.01,2013-02-10 06:35:00,
2013-02-10 00:40:00,36.7,29.2,29.67,East,100,0.0,4.9,74,0.00,,BKN150,0.00,VWS V14.01,2013-02-10 06:40:00,
2013-02-10 00:45:00,36.7,28.9,29.67,South,172,0.0,4.9,73,0.00,,BKN150,0.00,VWS V14.01,2013-02-10 06:45:00,
2013-02-10 00:50:00,36.7,29.2,29.67,SSE,166,0.0,4.9,74,0.00,,BKN150,0.00,VWS V14.01,2013-02-10 06:50:00,
2013-02-10 00:55:00,36.5,29.0,29.67,South,190,0.0,4.9,74,0.00,,BKN150,0.00,VWS V14.01,2013-02-10 06:55:00,
2013-02-10 01:00:00,36.3,29.2,29.67,SSW,196,0.0,0.0,75,0.00,,SCT150,0.00,VWS V14.01,2013-02-10 07:00:00,
2013-02-10 01:05:00,36.3,29.2,29.67,SSW,200,0.0,0.0,75,0.00,,SCT150,0.00,VWS V14.01,2013-02-10 07:05:00,
2013-02-10 01:10:00,36.1,29.0,29.67,ESE,119,0.0,0.0,75,0.00,,SCT150,0.00,VWS V14.01,2013-02-10 07:10:00,
2013-02-10 01:15:00,36.1,29.0,29.67,SW,222,0.0,0.0,75,0.00,,SCT150,0.00,VWS V14.01,2013-02-10 07:15:00,
2013-02-10 01:21:00,36.1,29.0,29.67,SE,126,0.0,2.2,75,0.00,,SCT150,0.00,VWS V14.01,2013-02-10 07:21:00,
2013-02-10 01:26:00,36.3,29.2,29.67,SSE,156,0.0,2.2,75,0.00,,SCT150,0.00,VWS V14.01,2013-02-10 07:26:00,
2013-02-10 01:30:00,36.1,28.7,29.67,SSE,161,0.0,0.0,74,0.00,,FEW250,0.00,VWS V14.01,2013-02-10 07:30:00,
2013-02-10 01:31:00,36.3,29.2,29.67,South,170,0.0,0.0,75,0.00,,SCT150,0.00,VWS V14.01,2013-02-10 07:31:00,
2013-02-10 01:36:00,36.3,29.2,29.67,SW,217,0.0,0.0,75,0.00,,SCT150,0.00,VWS V14.01,2013-02-10 07:36:00,
2013-02-10 01:41:00,36.1,29.0,29.67,SW,225,0.0,0.0,75,0.00,,SCT150,0.00,VWS V14.01,2013-02-10 07:41:00,
2013-02-10 01:46:00,36.1,28.7,29.67,SW,220,0.0,0.0,74,0.00,,SCT150,0.00,VWS V14.01,2013-02-10 07:46:00,
2013-02-10 01:51:00,36.1,29.0,29.67,SE,130,0.0,0.0,75,0.00,,SCT150,0.00,VWS V14.01,2013-02-10 07:51:00,
2013-02-10 01:56:00,36.1,29.0,29.67,ESE,115,0.0,0.0,75,0.00,,SCT150,0.00,VWS V14.01,2013-02-10 07:56:00,
2013-02-10 02:00:00,36.5,28.4,29.67,South,181,0.0,0.0,72,0.00,,FEW250,0.00,VWS V14.01,2013-02-10 08:00:00,
2013-02-10 02:01:00,36.1,29.0,29.67,SSE,166,0.0,0.0,75,0.00,,SCT120,0.00,VWS V14.01,2013-02-10 08:01:00,
2013-02-10 02:06:00,36.0,28.5,29.67,SSW,193,0.0,0.0,74,0.00,,SCT120,0.00,VWS V14.01,2013-02-10 08:06:00,
2013-02-10 02:11:00,36.0,28.8,29.67,SSW,196,0.0,0.0,75,0.00,,SCT120,0.00,VWS V14.01,2013-02-10 08:11:00,
2013-02-10 02:16:00,36.1,28.7,29.67,South,172,0.0,0.0,74,0.00,,SCT120,0.00,VWS V14.01,2013-02-10 08:16:00,
2013-02-10 02:21:00,36.1,28.7,29.67,South,173,0.0,0.0,74,0.00,,SCT120,0.00,VWS V14.01,2013-02-10 08:21:00,
2013-02-10 02:26:00,36.1,28.7,29.67,SSW,198,0.0,0.0,74,0.00,,SCT120,0.00,VWS V14.01,2013-02-10 08:26:00,
2013-02-10 02:30:00,36.7,28.9,29.67,SSW,199,0.0,0.0,73,0.00,,FEW250,0.00,VWS V14.01,2013-02-10 08:30:00,
2013-02-10 02:31:00,36.1,28.7,29.67,SSW,198,0.0,0.0,74,0.00,,SCT120,0.00,VWS V14.01,2013-02-10 08:31:00,
2013-02-10 02:36:00,36.1,28.7,29.67,SSE,159,0.0,0.0,74,0.00,,SCT120,0.00,VWS V14.01,2013-02-10 08:36:00,
2013-02-10 02:41:00,36.1,28.3,29.67,SSW,194,0.0,0.0,73,0.00,,SCT120,0.00,VWS V14.01,2013-02-10 08:41:00,
2013-02-10 02:46:00,36.1,28.3,29.67,South,172,0.0,0.0,73,0.00,,SCT120,0.00,VWS V14.01,2013-02-10 08:46:00,
2013-02-10 02:51:00,36.3,28.5,29.67,SSE,160,0.0,0.0,73,0.00,,SCT120,0.00,VWS V14.01,2013-02-10 08:51:00,
2013-02-10 02:56:00,36.5,28.7,29.67,SSE,162,0.0,0.0,73,0.00,,SCT120,0.00,VWS V14.01,2013-02-10 08:56:00,
2013-02-10 03:00:00,36.5,29.0,29.64,South,178,0.0,0.0,74,0.00,,FEW250,0.00,VWS V14.01,2013-02-10 09:00:00,
2013-02-10 03:01:00,36.5,28.7,29.67,SSE,159,0.0,0.0,73,0.00,,BKN200,0.00,VWS V14.01,2013-02-10 09:01:00,
2013-02-10 03:06:00,36.7,28.5,29.67,South,173,0.0,0.0,72,0.00,,BKN200,0.00,VWS V14.01,2013-02-10 09:06:00,
2013-02-10 03:11:00,36.7,28.9,29.67,South,191,0.0,0.0,73,0.00,,BKN200,0.00,VWS V14.01,2013-02-10 09:11:00,
2013-02-10 03:16:00,36.7,28.9,29.67,South,171,0.0,0.0,73,0.00,,BKN200,0.00,VWS V14.01,2013-02-10 09:16:00,
2013-02-10 03:21:00,36.7,28.9,29.67,SE,132,0.0,0.0,73,0.00,,BKN200,0.00,VWS V14.01,2013-02-10 09:21:00,
2013-02-10 03:26:00,36.7,28.9,29.67,SSE,163,0.0,0.0,73,0.00,,BKN200,0.00,VWS V14.01,2013-02-10 09:26:00,
2013-02-10 03:30:00,36.9,30.0,29.67,SSE,152,0.0,0.0,76,0.00,,FEW250,0.00,VWS V14.01,2013-02-10 09:30:00,
2013-02-10 03:31:00,36.7,28.9,29.67,SSE,147,0.0,0.0,73,0.00,,BKN200,0.00,VWS V14.01,2013-02-10 09:31:00,
2013-02-10 03:36:00,36.7,29.2,29.67,SE,144,0.0,0.0,74,0.00,,BKN200,0.00,VWS V14.01,2013-02-10 09:36:00,
2013-02-10 03:41:00,36.5,29.0,29.67,South,177,0.0,0.0,74,0.00,,BKN200,0.00,VWS V14.01,2013-02-10 09:41:00,
2013-02-10 03:46:00,36.5,29.0,29.67,SE,140,0.0,0.0,74,0.00,,BKN200,0.00,VWS V14.01,2013-02-10 09:46:00,
2013-02-10 03:51:00,36.5,29.3,29.67,SSE,155,0.0,0.0,75,0.00,,BKN200,0.00,VWS V14.01,2013-02-10 09:51:00,
2013-02-10 03:56:00,36.5,29.3,29.64,SSW,212,0.0,0.0,75,0.00,,BKN200,0.00,VWS V14.01,2013-02-10 09:56:00,
2013-02-10 04:00:00,36.9,30.3,29.67,ESE,121,0.0,0.0,77,0.00,,FEW250,0.00,VWS V14.01,2013-02-10 10:00:00,
2013-02-10 04:01:00,36.5,29.3,29.64,South,172,0.0,0.0,75,0.00,,OVC150,0.00,VWS V14.01,2013-02-10 10:01:00,
2013-02-10 04:06:00,36.7,29.5,29.64,SSW,205,0.0,0.0,75,0.00,,OVC150,0.00,VWS V14.01,2013-02-10 10:06:00,
2013-02-10 04:11:00,36.7,29.2,29.67,South,185,0.0,0.0,74,0.00,,OVC150,0.00,VWS V14.01,2013-02-10 10:11:00,
2013-02-10 04:16:00,36.7,29.5,29.67,South,187,0.0,0.0,75,0.00,,OVC150,0.00,VWS V14.01,2013-02-10 10:16:00,
2013-02-10 04:21:00,36.9,29.7,29.67,SSE,158,0.0,0.0,75,0.00,,OVC150,0.00,VWS V14.01,2013-02-10 10:21:00,
2013-02-10 04:26:00,36.9,30.0,29.67,South,187,0.0,0.0,76,0.00,,OVC150,0.00,VWS V14.01,2013-02-10 10:26:00,
2013-02-10 04:30:00,36.9,30.6,29.67,SE,142,0.0,0.0,78,0.00,,FEW250,0.00,VWS V14.01,2013-02-10 10:30:00,
2013-02-10 04:31:00,36.9,30.0,29.67,SSW,209,0.0,0.0,76,0.00,,OVC150,0.00,VWS V14.01,2013-02-10 10:31:00,
2013-02-10 04:36:00,37.0,30.5,29.67,SW,214,0.0,0.0,77,0.00,,OVC150,0.00,VWS V14.01,2013-02-10 10:36:00,
2013-02-10 04:41:00,37.0,30.5,29.67,SSE,167,0.0,0.0,77,0.00,,OVC150,0.00,VWS V14.01,2013-02-10 10:41:00,
2013-02-10 04:46:00,37.0,30.2,29.67,South,188,0.0,0.0,76,0.00,,OVC150,0.00,VWS V14.01,2013-02-10 10:46:00,
2013-02-10 04:51:00,37.0,30.5,29.67,South,180,0.0,0.0,77,0.00,,OVC150,0.00,VWS V14.01,2013-02-10 10:51:00,
2013-02-10 04:56:00,37.0,30.5,29.67,SSW,213,0.0,0.0,77,0.00,,OVC150,0.00,VWS V14.01,2013-02-10 10:56:00,
2013-02-10 05:00:00,37.2,32.5,29.67,SSE,155,0.0,0.0,83,0.00,,FEW250,0.00,VWS V14.01,2013-02-10 11:00:00,
2013-02-10 05:01:00,36.9,30.3,29.67,SSW,196,0.0,0.0,77,0.00,,OVC055,0.00,VWS V14.01,2013-02-10 11:01:00,
2013-02-10 05:06:00,36.9,30.3,29.67,South,178,0.0,0.0,77,0.00,,OVC055,0.00,VWS V14.01,2013-02-10 11:06:00,
2013-02-10 05:11:00,36.9,30.3,29.67,SE,132,0.0,0.0,77,0.00,,OVC055,0.00,VWS V14.01,2013-02-10 11:11:00,
2013-02-10 05:16:00,36.9,30.3,29.67,South,180,0.0,0.0,77,0.00,,OVC055,0.00,VWS V14.01,2013-02-10 11:16:00,
2013-02-10 05:21:00,36.9,30.6,29.67,SSE,163,0.0,0.0,78,0.00,,OVC055,0.00,VWS V14.01,2013-02-10 11:21:00,
2013-02-10 05:26:00,36.9,30.6,29.67,SSW,197,0.0,0.0,78,0.00,,OVC055,0.00,VWS V14.01,2013-02-10 11:26:00,
2013-02-10 05:30:00,37.8,35.4,29.67,SSE,158,0.0,0.0,91,0.00,,FEW250,0.00,VWS V14.01,2013-02-10 11:30:00,
2013-02-10 05:31:00,36.9,30.6,29.67,SSW,203,0.0,0.0,78,0.00,,OVC055,0.00,VWS V14.01,2013-02-10 11:31:00,
2013-02-10 05:36:00,36.9,31.0,29.67,SW,214,0.0,0.0,79,0.00,,OVC055,0.00,VWS V14.01,2013-02-10 11:36:00,
2013-02-10 05:41:00,36.9,31.3,29.67,SSW,204,0.0,0.0,80,0.00,,OVC055,0.00,VWS V14.01,2013-02-10 11:41:00,
2013-02-10 05:46:00,36.9,31.6,29.67,ESE,106,0.0,0.0,81,0.00,,OVC055,0.00,VWS V14.01,2013-02-10 11:46:00,
2013-02-10 05:51:00,37.0,32.1,29.67,South,179,0.0,0.0,82,0.00,,OVC055,0.00,VWS V14.01,2013-02-10 11:51:00,
2013-02-10 05:56:00,37.0,32.4,29.67,SSW,200,0.0,0.0,83,0.00,,OVC055,0.00,VWS V14.01,2013-02-10 11:56:00,
2013-02-10 06:00:00,38.3,38.3,29.67,SE,144,0.0,0.0,100,0.00,,FEW250,0.00,VWS V14.01,2013-02-10 12:00:00,
2013-02-10 06:01:00,37.2,32.8,29.67,South,169,0.0,0.0,84,0.00,,OVC055,0.00,VWS V14.01,2013-02-10 12:01:00,
2013-02-10 06:06:00,37.2,32.8,29.67,South,186,0.0,0.0,84,0.00,,OVC055,0.00,VWS V14.01,2013-02-10 12:06:00,
2013-02-10 06:11:00,37.2,33.4,29.67,SSW,196,0.0,0.0,86,0.00,,OVC055,0.00,VWS V14.01,2013-02-10 12:11:00,
2013-02-10 06:16:00,37.4,33.9,29.67,SSW,196,0.0,0.0,87,0.00,,OVC055,0.00,VWS V14.01,2013-02-10 12:16:00,
2013-02-10 06:21:00,37.6,34.6,29.67,SSW,197,0.0,0.0,89,0.00,,OVC055,0.00,VWS V14.01,2013-02-10 12:21:00,
2013-02-10 06:26:00,37.6,34.9,29.67,South,176,0.0,0.0,90,0.00,,OVC055,0.00,VWS V14.01,2013-02-10 12:26:00,
2013-02-10 06:30:00,39.0,39.0,29.67,SE,128,0.0,0.0,100,0.00,,FEW250,0.00,VWS V14.01,2013-02-10 12:30:00,
2013-02-10 06:31:00,37.8,35.7,29.67,SSW,193,0.0,0.0,92,0.00,,OVC055,0.00,VWS V14.01,2013-02-10 12:31:00,
2013-02-10 06:36:00,37.9,36.1,29.67,SSE,163,0.0,0.0,93,0.00,,OVC055,0.00,VWS V14.01,2013-02-10 12:36:00,
2013-02-10 06:41:00,37.9,36.6,29.67,SSE,160,0.0,0.0,95,0.00,,OVC055,0.00,VWS V14.01,2013-02-10 12:41:00,
2013-02-10 06:46:00,38.1,37.6,29.67,SE,144,0.0,0.0,98,0.00,,OVC055,0.00,VWS V14.01,2013-02-10 12:46:00,
2013-02-10 06:51:00,38.1,37.9,29.67,SSE,163,0.0,0.0,99,0.00,,OVC055,0.00,VWS V14.01,2013-02-10 12:51:00,
2013-02-10 06:56:00,38.1,38.1,29.67,SSE,149,0.0,0.0,100,0.00,,OVC055,0.00,VWS V14.01,2013-02-10 12:56:00,
2013-02-10 07:00:00,37.6,37.6,29.67,SE,138,0.0,2.2,100,0.04,,FEW250,0.04,VWS V14.01,2013-02-10 13:00:00,
2013-02-10 07:01:00,38.3,38.3,29.67,South,181,0.0,0.0,100,0.00,,OVC055,0.00,VWS V14.01,2013-02-10 13:01:00,
2013-02-10 07:06:00,38.5,38.5,29.67,SSW,197,0.0,0.0,100,0.00,,OVC055,0.00,VWS V14.01,2013-02-10 13:06:00,
2013-02-10 07:11:00,38.7,38.7,29.67,SE,132,0.0,0.0,100,0.00,,OVC055,0.00,VWS V14.01,2013-02-10 13:11:00,
2013-02-10 07:16:00,38.8,38.8,29.67,SSE,162,0.0,0.0,100,0.00,,OVC055,0.00,VWS V14.01,2013-02-10 13:16:00,
2013-02-10 07:21:00,39.0,39.0,29.67,ESE,117,0.0,0.0,100,0.00,,OVC055,0.00,VWS V14.01,2013-02-10 13:21:00,
2013-02-10 07:26:00,39.2,39.2,29.67,ESE,104,0.0,0.0,100,0.00,,OVC055,0.00,VWS V14.01,2013-02-10 13:26:00,
2013-02-10 07:30:00,39.0,39.0,29.67,SW,227,0.0,0.0,100,0.04,,FEW250,0.04,VWS V14.01,2013-02-10 13:30:00,
2013-02-10 07:31:00,38.8,38.8,29.67,ESE,108,0.0,0.0,100,0.00,,-RA,0.00,VWS V14.01,2013-02-10 13:31:00,
2013-02-10 07:36:00,37.9,37.9,29.67,SSE,164,0.0,2.2,100,0.04,,-RA,0.04,VWS V14.01,2013-02-10 13:36:00,
2013-02-10 07:41:00,37.6,37.6,29.67,East,87,0.0,2.2,100,0.04,,-RA,0.04,VWS V14.01,2013-02-10 13:41:00,
2013-02-10 07:46:00,37.8,37.8,29.67,SE,130,0.0,2.2,100,0.04,,-RA,0.04,VWS V14.01,2013-02-10 13:46:00,
2013-02-10 07:51:00,37.9,37.9,29.67,East,100,0.0,2.2,100,0.04,,-RA,0.04,VWS V14.01,2013-02-10 13:51:00,
2013-02-10 07:56:00,37.8,37.8,29.67,SE,128,0.0,2.2,100,0.04,,-RA,0.04,VWS V14.01,2013-02-10 13:56:00,
2013-02-10 08:00:00,39.2,39.2,29.67,SSE,153,0.0,4.0,100,0.04,,FEW250,0.04,VWS V14.01,2013-02-10 14:00:00,
2013-02-10 08:01:00,37.6,37.6,29.67,ESE,120,0.0,0.0,100,0.04,,BKN075,0.04,VWS V14.01,2013-02-10 14:01:00,
2013-02-10 08:06:00,37.6,37.6,29.67,ESE,104,0.0,0.0,100,0.04,,BKN075,0.04,VWS V14.01,2013-02-10 14:06:00,
2013-02-10 08:11:00,37.6,37.6,29.67,SE,131,0.0,0.0,100,0.04,,BKN075,0.04,VWS V14.01,2013-02-10 14:11:00,
2013-02-10 08:16:00,37.9,37.9,29.67,SE,143,0.0,0.0,100,0.04,,BKN075,0.04,VWS V14.01,2013-02-10 14:16:00,
2013-02-10 08:21:00,38.5,38.5,29.67,South,173,0.0,0.0,100,0.04,,BKN075,0.04,VWS V14.01,2013-02-10 14:21:00,
2013-02-10 08:26:00,38.8,38.8,29.67,SE,145,0.0,0.0,100,0.04,,BKN075,0.04,VWS V14.01,2013-02-10 14:26:00,
2013-02-10 08:30:00,39.2,39.2,29.64,SSE,160,0.0,6.7,100,0.04,,FEW250,0.08,VWS V14.01,2013-02-10 14:30:00,
2013-02-10 08:31:00,39.0,39.0,29.67,ESE,112,0.0,0.0,100,0.04,,BKN075,0.04,VWS V14.01,2013-02-10 14:31:00,
2013-02-10 08:36:00,38.8,38.8,29.67,SE,140,0.0,0.0,100,0.04,,BKN075,0.04,VWS V14.01,2013-02-10 14:36:00,
2013-02-10 08:41:00,38.8,38.8,29.67,SSE,156,0.0,0.0,100,0.04,,BKN075,0.04,VWS V14.01,2013-02-10 14:41:00,
2013-02-10 08:46:00,38.8,38.8,29.67,SSE,148,0.0,0.0,100,0.04,,BKN075,0.04,VWS V14.01,2013-02-10 14:46:00,
2013-02-10 08:51:00,39.0,39.0,29.67,ESE,114,0.0,0.0,100,0.04,,BKN075,0.04,VWS V14.01,2013-02-10 14:51:00,
2013-02-10 08:56:00,39.2,39.2,29.67,SSE,168,0.0,4.0,100,0.04,,BKN075,0.04,VWS V14.01,2013-02-10 14:56:00,
2013-02-10 09:00:00,40.3,40.3,29.64,SSE,152,2.2,6.7,100,0.04,,FEW250,0.08,VWS V14.01,2013-02-10 15:00:00,
2013-02-10 09:01:00,39.2,39.2,29.67,South,178,0.0,2.2,100,0.00,,,0.04,VWS V14.01,2013-02-10 15:01:00,
2013-02-10 09:06:00,39.2,39.2,29.67,SSW,203,0.0,6.3,100,0.04,,,0.08,VWS V14.01,2013-02-10 15:06:00,
2013-02-10 09:11:00,39.2,39.2,29.67,South,176,0.0,6.7,100,0.04,,,0.08,VWS V14.01,2013-02-10 15:11:00,
2013-02-10 09:16:00,39.2,39.2,29.67,South,186,3.1,6.7,100,0.04,,,0.08,VWS V14.01,2013-02-10 15:16:00,
2013-02-10 09:22:00,39.2,39.2,29.67,SSE,151,0.0,6.7,100,0.04,,,0.08,VWS V14.01,2013-02-10 15:22:00,
2013-02-10 09:27:00,39.0,39.0,29.64,SSE,153,0.0,6.7,100,0.04,,,0.08,VWS V14.01,2013-02-10 15:27:00,
2013-02-10 09:30:00,40.3,40.3,29.67,South,180,0.0,9.2,100,0.04,,FEW250,0.08,VWS V14.01,2013-02-10 15:30:00,
2013-02-10 09:32:00,39.2,39.2,29.64,SSE,164,0.0,0.0,100,0.04,,,0.08,VWS V14.01,2013-02-10 15:32:00,
2013-02-10 09:37:00,39.4,39.4,29.64,ENE,65,0.0,3.1,100,0.04,,,0.08,VWS V14.01,2013-02-10 15:37:00,
2013-02-10 09:42:00,39.4,39.4,29.67,SE,124,2.7,4.5,100,0.04,,,0.08,VWS V14.01,2013-02-10 15:42:00,
2013-02-10 09:47:00,39.7,39.7,29.67,SSE,166,0.0,6.7,100,0.04,,,0.08,VWS V14.01,2013-02-10 15:47:00,
2013-02-10 09:52:00,39.9,39.9,29.67,SE,141,3.6,6.7,100,0.04,,,0.08,VWS V14.01,2013-02-10 15:52:00,
2013-02-10 09:57:00,40.3,40.3,29.64,SSE,168,0.0,6.7,100,0.04,,,0.08,VWS V14.01,2013-02-10 15:57:00,
2013-02-10 10:00:00,41.4,41.4,29.67,SSE,163,0.0,6.3,100,0.04,,FEW250,0.12,VWS V14.01,2013-02-10 16:00:00,
2013-02-10 10:02:00,40.3,40.3,29.64,SSE,163,0.0,2.7,100,0.04,,,0.08,VWS V14.01,2013-02-10 16:02:00,
2013-02-10 10:07:00,40.3,40.3,29.64,SW,221,0.0,4.5,100,0.04,,,0.08,VWS V14.01,2013-02-10 16:07:00,
2013-02-10 10:12:00,40.3,40.3,29.64,SSE,154,0.0,4.9,100,0.04,,,0.08,VWS V14.01,2013-02-10 16:12:00,
2013-02-10 10:17:00,40.3,40.3,29.64,South,171,2.7,9.2,100,0.04,,,0.08,VWS V14.01,2013-02-10 16:17:00,
2013-02-10 10:22:00,40.1,40.1,29.64,SSE,159,2.7,9.2,100,0.04,,,0.08,VWS V14.01,2013-02-10 16:22:00,
2013-02-10 10:27:00,40.3,40.3,29.67,SE,139,0.0,9.2,100,0.04,,,0.08,VWS V14.01,2013-02-10 16:27:00,
2013-02-10 10:30:00,41.5,41.5,29.64,SE,128,2.2,5.4,100,0.04,,FEW250,0.12,VWS V14.01,2013-02-10 16:30:00,
2013-02-10 10:32:00,40.3,40.3,29.67,ESE,123,0.0,0.0,100,0.00,,,0.08,VWS V14.01,2013-02-10 16:32:00,
2013-02-10 10:37:00,40.6,40.6,29.67,ESE,116,0.0,4.0,100,0.04,,,0.12,VWS V14.01,2013-02-10 16:37:00,
2013-02-10 10:42:00,41.0,41.0,29.64,SSW,197,0.0,4.0,100,0.04,,,0.12,VWS V14.01,2013-02-10 16:42:00,
2013-02-10 10:47:00,41.2,41.2,29.64,SSE,152,2.2,4.0,100,0.04,,,0.12,VWS V14.01,2013-02-10 16:47:00,
2013-02-10 10:52:00,41.4,41.4,29.64,West,276,2.7,6.3,100,0.04,,,0.12,VWS V14.01,2013-02-10 16:52:00,
2013-02-10 10:57:00,41.4,41.4,29.67,SSW,198,2.7,6.3,100,0.04,,,0.12,VWS V14.01,2013-02-10 16:57:00,
2013-02-10 11:00:00,41.9,41.9,29.58,South,186,0.0,8.3,100,0.08,,FEW250,0.16,VWS V14.01,2013-02-10 17:00:00,
2013-02-10 11:02:00,41.4,41.4,29.67,SSE,154,0.0,2.2,100,0.04,,-RA,0.12,VWS V14.01,2013-02-10 17:02:00,
2013-02-10 11:07:00,41.2,41.2,29.67,SE,126,0.0,5.4,100,0.04,,-RA,0.12,VWS V14.01,2013-02-10 17:07:00,
2013-02-10 11:12:00,41.2,41.2,29.64,SSE,150,0.0,5.4,100,0.04,,-RA,0.12,VWS V14.01,2013-02-10 17:12:00,
2013-02-10 11:17:00,41.4,41.4,29.64,SW,214,0.0,5.4,100,0.04,,-RA,0.12,VWS V14.01,2013-02-10 17:17:00,
2013-02-10 11:22:00,41.5,41.5,29.64,SSW,202,0.0,5.4,100,0.04,,-RA,0.12,VWS V14.01,2013-02-10 17:22:00,
2013-02-10 11:27:00,41.4,41.4,29.64,South,174,0.0,5.4,100,0.04,,-RA,0.12,VWS V14.01,2013-02-10 17:27:00,
2013-02-10 11:30:00,43.2,43.2,29.61,South,171,0.0,8.3,100,0.08,,FEW250,0.20,VWS V14.01,2013-02-10 17:30:00,
2013-02-10 11:32:00,41.5,41.5,29.64,South,183,2.7,8.3,100,0.08,,-RA,0.16,VWS V14.01,2013-02-10 17:32:00,
2013-02-10 11:37:00,41.5,41.5,29.64,South,187,0.0,8.3,100,0.08,,-RA,0.16,VWS V14.01,2013-02-10 17:37:00,
2013-02-10 11:42:00,41.5,41.5,29.58,South,189,0.0,8.3,100,0.08,,-RA,0.16,VWS V14.01,2013-02-10 17:42:00,
2013-02-10 11:47:00,41.7,41.7,29.58,SSE,156,0.0,8.3,100,0.08,,-RA,0.16,VWS V14.01,2013-02-10 17:47:00,
2013-02-10 11:52:00,41.7,41.7,29.58,SSE,158,0.0,8.3,100,0.08,,-RA,0.16,VWS V14.01,2013-02-10 17:52:00,
2013-02-10 11:57:00,41.9,41.9,29.58,SSE,159,0.0,8.3,100,0.08,,-RA,0.16,VWS V14.01,2013-02-10 17:57:00,
2013-02-10 12:00:00,43.5,43.5,29.58,SE,144,4.0,10.1,100,0.08,,FEW250,0.20,VWS V14.01,2013-02-10 18:00:00,
2013-02-10 12:02:00,42.1,42.1,29.58,SSE,154,5.4,5.4,100,0.04,,RA,0.16,VWS V14.01,2013-02-10 18:02:00,
2013-02-10 12:07:00,42.4,42.4,29.58,South,185,4.5,6.3,100,0.04,,RA,0.16,VWS V14.01,2013-02-10 18:07:00,
2013-02-10 12:12:00,42.6,42.6,29.58,South,174,0.0,6.3,100,0.04,,RA,0.16,VWS V14.01,2013-02-10 18:12:00,
2013-02-10 12:17:00,42.8,42.8,29.58,South,179,0.0,8.3,100,0.04,,RA,0.16,VWS V14.01,2013-02-10 18:17:00,
2013-02-10 12:22:00,43.0,43.0,29.58,South,175,3.1,8.3,100,0.08,,RA,0.20,VWS V14.01,2013-02-10 18:22:00,
2013-02-10 12:27:00,43.2,43.2,29.61,South,191,0.0,8.3,100,0.08,,RA,0.20,VWS V14.01,2013-02-10 18:27:00,
2013-02-10 12:30:00,45.9,45.9,29.67,South,188,2.7,12.8,100,0.08,,FEW250,0.24,VWS V14.01,2013-02-10 18:30:00,
2013-02-10 12:32:00,43.2,43.2,29.61,SW,234,0.0,0.0,100,0.08,,RA,0.20,VWS V14.01,2013-02-10 18:32:00,
2013-02-10 12:37:00,43.2,43.2,29.61,SSW,209,0.0,10.1,100,0.08,,RA,0.20,VWS V14.01,2013-02-10 18:37:00,
2013-02-10 12:42:00,43.3,43.3,29.61,SSW,205,2.7,10.1,100,0.08,,RA,0.20,VWS V14.01,2013-02-10 18:42:00,
2013-02-10 12:47:00,43.2,43.2,29.61,SSE,155,0.0,10.1,100,0.08,,RA,0.20,VWS V14.01,2013-02-10 18:47:00,
2013-02-10 12:52:00,43.3,43.3,29.61,SSE,155,2.7,10.1,100,0.08,,RA,0.20,VWS V14.01,2013-02-10 18:52:00,
2013-02-10 12:57:00,43.5,43.5,29.58,South,188,0.0,10.1,100,0.08,,RA,0.20,VWS V14.01,2013-02-10 18:57:00,
2013-02-10 13:00:00,46.9,46.9,29.61,SE,135,5.4,11.9,100,0.08,,FEW250,0.28,VWS V14.01,2013-02-10 19:00:00,
2013-02-10 13:02:00,43.7,43.7,29.58,SSE,157,0.0,5.8,100,0.04,,-RA,0.20,VWS V14.01,2013-02-10 19:02:00,
2013-02-10 13:07:00,44.1,44.1,29.58,South,191,4.5,9.6,100,0.04,,-RA,0.20,VWS V14.01,2013-02-10 19:07:00,
2013-02-10 13:12:00,44.6,44.6,29.58,SSE,151,5.4,12.3,100,0.08,,-RA,0.24,VWS V14.01,2013-02-10 19:12:00,
2013-02-10 13:17:00,45.0,45.0,29.58,SSE,153,3.6,12.3,100,0.08,,-RA,0.24,VWS V14.01,2013-02-10 19:17:00,
2013-02-10 13:22:00,45.5,45.5,29.58,SE,145,0.0,12.3,100,0.08,,-RA,0.24,VWS V14.01,2013-02-10 19:22:00,
2013-02-10 13:27:00,45.9,45.9,29.67,SE,145,7.2,12.8,100,0.08,,-RA,0.24,VWS V14.01,2013-02-10 19:27:00,
2013-02-10 13:30:00,47.1,47.1,29.64,SSE,162,5.8,13.2,100,0.08,,FEW250,0.28,VWS V14.01,2013-02-10 19:30:00,
2013-02-10 13:32:00,45.9,45.9,29.67,SE,145,0.0,2.7,100,0.04,,-RA,0.24,VWS V14.01,2013-02-10 19:32:00,
2013-02-10 13:37:00,46.0,46.0,29.67,South,169,10.1,10.1,100,0.04,,-RA,0.24,VWS V14.01,2013-02-10 19:37:00,
2013-02-10 13:42:00,46.6,46.6,29.64,SSW,197,5.4,11.9,100,0.08,,-RA,0.28,VWS V14.01,2013-02-10 19:42:00,
2013-02-10 13:47:00,46.6,46.6,29.64,SE,139,6.7,11.9,100,0.08,,-RA,0.28,VWS V14.01,2013-02-10 19:47:00,
2013-02-10 13:52:00,46.6,46.6,29.64,ESE,119,0.0,11.9,100,0.08,,-RA,0.28,VWS V14.01,2013-02-10 19:52:00,
2013-02-10 13:57:00,46.8,46.8,29.61,South,188,3.6,11.9,100,0.08,,-RA,0.28,VWS V14.01,2013-02-10 19:57:00,
2013-02-10 14:00:00,46.9,46.9,29.55,South,187,0.0,11.0,100,0.04,,FEW250,0.28,VWS V14.01,2013-02-10 20:00:00,
2013-02-10 14:02:00,47.1,47.1,29.61,SSW,194,0.0,5.8,100,0.08,,-RA,0.28,VWS V14.01,2013-02-10 20:02:00,
2013-02-10 14:07:00,47.3,47.3,29.61,ESE,120,3.6,8.1,100,0.08,,-RA,0.28,VWS V14.01,2013-02-10 20:07:00,
2013-02-10 14:12:00,47.3,47.3,29.58,ESE,109,0.0,8.1,100,0.08,,-RA,0.28,VWS V14.01,2013-02-10 20:12:00,
2013-02-10 14:17:00,47.3,47.3,29.58,SE,135,8.1,10.5,100,0.08,,-RA,0.28,VWS V14.01,2013-02-10 20:17:00,
2013-02-10 14:22:00,47.3,47.3,29.58,SSE,162,2.7,11.4,100,0.08,,-RA,0.28,VWS V14.01,2013-02-10 20:22:00,
2013-02-10 14:27:00,47.3,47.3,29.64,South,178,8.1,11.4,100,0.08,,-RA,0.28,VWS V14.01,2013-02-10 20:27:00,
2013-02-10 14:30:00,47.7,47.7,29.55,South,172,0.0,0.0,100,0.00,,FEW250,0.28,VWS V14.01,2013-02-10 20:30:00,
2013-02-10 14:32:00,47.1,47.1,29.64,SSW,205,3.1,8.1,100,0.04,,-RA,0.28,VWS V14.01,2013-02-10 20:32:00,
2013-02-10 14:37:00,46.9,46.9,29.64,South,188,10.1,10.1,100,0.04,,-RA,0.28,VWS V14.01,2013-02-10 20:37:00,
2013-02-10 14:42:00,46.9,46.9,29.67,South,180,0.0,10.5,100,0.04,,-RA,0.28,VWS V14.01,2013-02-10 20:42:00,
2013-02-10 14:47:00,46.9,46.9,29.67,SSE,148,0.0,11.0,100,0.04,,-RA,0.28,VWS V14.01,2013-02-10 20:47:00,
2013-02-10 14:52:00,46.9,46.9,29.67,South,176,4.0,11.0,100,0.04,,-RA,0.28,VWS V14.01,2013-02-10 20:52:00,
2013-02-10 14:57:00,46.9,46.9,29.55,South,187,5.8,11.0,100,0.04,,-RA,0.28,VWS V14.01,2013-02-10 20:57:00,
2013-02-10 15:00:00,48.0,48.0,29.61,South,188,0.0,0.0,100,0.00,,FEW250,0.28,VWS V14.01,2013-02-10 21:00:00,
2013-02-10 15:02:00,47.1,47.1,29.55,SSW,198,0.0,0.0,100,0.00,,OVC041,0.28,VWS V14.01,2013-02-10 21:02:00,
2013-02-10 15:07:00,47.1,47.1,29.55,South,182,0.0,0.0,100,0.00,,OVC041,0.28,VWS V14.01,2013-02-10 21:07:00,
2013-02-10 15:12:00,47.3,47.3,29.58,South,179,0.0,0.0,100,0.00,,OVC041,0.28,VWS V14.01,2013-02-10 21:12:00,
2013-02-10 15:17:00,47.3,47.3,29.58,ESE,105,0.0,0.0,100,0.00,,OVC041,0.28,VWS V14.01,2013-02-10 21:17:00,
2013-02-10 15:22:00,47.5,47.5,29.58,South,174,0.0,0.0,100,0.00,,OVC041,0.28,VWS V14.01,2013-02-10 21:22:00,
2013-02-10 15:28:00,47.5,47.5,29.55,South,182,0.0,0.0,100,0.00,,OVC041,0.28,VWS V14.01,2013-02-10 21:28:00,
2013-02-10 15:30:00,48.2,48.2,29.67,SSW,197,0.0,0.0,100,0.00,,FEW250,0.28,VWS V14.01,2013-02-10 21:30:00,
2013-02-10 15:33:00,47.7,47.7,29.55,South,173,0.0,0.0,100,0.00,,OVC041,0.28,VWS V14.01,2013-02-10 21:33:00,
2013-02-10 15:38:00,47.7,47.7,29.55,SE,132,0.0,0.0,100,0.00,,OVC041,0.28,VWS V14.01,2013-02-10 21:38:00,
2013-02-10 15:43:00,47.7,47.7,29.64,SSW,195,0.0,0.0,100,0.00,,OVC041,0.28,VWS V14.01,2013-02-10 21:43:00,
2013-02-10 15:48:00,47.7,47.7,29.64,South,174,0.0,0.0,100,0.00,,OVC041,0.28,VWS V14.01,2013-02-10 21:48:00,
2013-02-10 15:53:00,47.8,47.8,29.64,SSE,152,0.0,0.0,100,0.00,,OVC041,0.28,VWS V14.01,2013-02-10 21:53:00,
2013-02-10 15:58:00,47.8,47.8,29.61,South,187,0.0,0.0,100,0.00,,OVC041,0.28,VWS V14.01,2013-02-10 21:58:00,
2013-02-10 16:00:00,48.7,48.7,29.61,South,186,6.3,11.0,100,0.00,,FEW250,0.28,VWS V14.01,2013-02-10 22:00:00,
2013-02-10 16:03:00,48.2,48.2,29.61,SE,143,0.0,0.0,100,0.00,,OVC012,0.28,VWS V14.01,2013-02-10 22:03:00,
2013-02-10 16:08:00,48.2,48.2,29.61,South,169,0.0,0.0,100,0.00,,OVC012,0.28,VWS V14.01,2013-02-10 22:08:00,
2013-02-10 16:13:00,48.0,48.0,29.58,WSW,248,0.0,0.0,100,0.00,,OVC012,0.28,VWS V14.01,2013-02-10 22:13:00,
2013-02-10 16:18:00,48.0,48.0,29.58,SSW,200,0.0,0.0,100,0.00,,OVC012,0.28,VWS V14.01,2013-02-10 22:18:00,
2013-02-10 16:23:00,48.0,48.0,29.58,South,170,0.0,0.0,100,0.00,,OVC012,0.28,VWS V14.01,2013-02-10 22:23:00,
2013-02-10 16:28:00,48.2,48.2,29.67,SSE,153,0.0,0.0,100,0.00,,OVC012,0.28,VWS V14.01,2013-02-10 22:28:00,
2013-02-10 16:30:00,49.1,49.1,29.52,SSW,211,0.0,12.8,100,0.00,,FEW250,0.28,VWS V14.01,2013-02-10 22:30:00,
2013-02-10 16:33:00,48.4,48.4,29.67,SSE,154,0.0,0.0,100,0.00,,OVC012,0.28,VWS V14.01,2013-02-10 22:33:00,
2013-02-10 16:38:00,48.4,48.4,29.67,SSW,202,0.0,0.0,100,0.00,,OVC012,0.28,VWS V14.01,2013-02-10 22:38:00,
2013-02-10 16:43:00,48.6,48.6,29.67,South,169,0.0,0.0,100,0.00,,OVC012,0.28,VWS V14.01,2013-02-10 22:43:00,
2013-02-10 16:48:00,48.7,48.7,29.67,SW,214,0.0,0.0,100,0.00,,OVC012,0.28,VWS V14.01,2013-02-10 22:48:00,
2013-02-10 16:53:00,48.7,48.7,29.67,South,191,10.5,11.0,100,0.00,,OVC012,0.28,VWS V14.01,2013-02-10 22:53:00,
2013-02-10 16:58:00,48.7,48.7,29.61,South,175,2.7,11.0,100,0.00,,OVC012,0.28,VWS V14.01,2013-02-10 22:58:00,
2013-02-10 17:00:00,50.0,50.0,29.55,SSW,200,8.1,12.8,100,0.00,,FEW250,0.28,VWS V14.01,2013-02-10 23:00:00,
2013-02-10 17:03:00,48.7,48.7,29.61,SSE,164,9.6,9.6,100,0.00,,-RA,0.28,VWS V14.01,2013-02-10 23:03:00,
2013-02-10 17:08:00,48.9,48.9,29.61,SSW,204,8.7,10.5,100,0.00,,-RA,0.28,VWS V14.01,2013-02-10 23:08:00,
2013-02-10 17:13:00,48.9,48.9,29.55,SSW,197,8.3,10.5,100,0.00,,-RA,0.28,VWS V14.01,2013-02-10 23:13:00,
2013-02-10 17:18:00,49.1,49.1,29.55,South,186,0.0,12.8,100,0.00,,-RA,0.28,VWS V14.01,2013-02-10 23:18:00,
2013-02-10 17:23:00,49.1,49.1,29.55,South,171,0.0,12.8,100,0.00,,-RA,0.28,VWS V14.01,2013-02-10 23:23:00,
2013-02-10 17:28:00,49.1,49.1,29.52,SSW,199,5.8,12.8,100,0.00,,-RA,0.28,VWS V14.01,2013-02-10 23:28:00,
2013-02-10 17:30:00,50.4,50.4,29.61,SW,232,7.6,11.0,100,0.08,,FEW250,0.35,VWS V14.01,2013-02-10 23:30:00,
2013-02-10 17:33:00,49.3,49.3,29.52,SSE,152,0.0,10.5,100,0.00,,-RA,0.28,VWS V14.01,2013-02-10 23:33:00,
2013-02-10 17:38:00,49.3,49.3,29.52,WSW,237,5.8,11.0,100,0.00,,-RA,0.28,VWS V14.01,2013-02-10 23:38:00,
2013-02-10 17:43:00,49.3,49.3,29.49,South,175,4.5,11.0,100,0.00,,-RA,0.28,VWS V14.01,2013-02-10 23:43:00,
2013-02-10 17:48:00,49.6,49.6,29.49,South,182,5.8,11.0,100,0.00,,-RA,0.28,VWS V14.01,2013-02-10 23:48:00,
2013-02-10 17:53:00,49.6,49.6,29.49,SSW,196,8.7,11.0,100,0.00,,-RA,0.28,VWS V14.01,2013-02-10 23:53:00,
2013-02-10 17:58:00,50.0,50.0,29.55,SSE,160,10.1,11.9,100,0.00,,-RA,0.28,VWS V14.01,2013-02-10 23:58:00,
2013-02-10 18:00:00,51.1,51.1,29.67,South,177,3.1,11.9,100,0.08,,FEW250,0.35,VWS V14.01,2013-02-11 00:00:00,
2013-02-10 18:03:00,50.0,50.0,29.55,South,183,3.6,11.0,100,0.00,,-RA,0.28,VWS V14.01,2013-02-11 00:03:00,
2013-02-10 18:08:00,50.2,50.2,29.55,WSW,247,11.0,11.0,100,0.00,,-RA,0.28,VWS V14.01,2013-02-11 00:08:00,
2013-02-10 18:13:00,50.2,50.2,29.55,South,174,8.1,11.0,100,0.00,,-RA,0.28,VWS V14.01,2013-02-11 00:13:00,
2013-02-10 18:18:00,50.2,50.2,29.55,SSW,194,3.1,11.0,100,0.08,,-RA,0.35,VWS V14.01,2013-02-11 00:18:00,
2013-02-10 18:23:00,50.2,50.2,29.55,SSW,196,4.0,11.0,100,0.08,,-RA,0.35,VWS V14.01,2013-02-11 00:23:00,
2013-02-10 18:28:00,50.4,50.4,29.61,SSW,212,10.5,11.0,100,0.08,,-RA,0.35,VWS V14.01,2013-02-11 00:28:00,
2013-02-10 18:30:00,51.4,51.4,29.49,South,174,6.3,12.3,100,0.08,,FEW250,0.35,VWS V14.01,2013-02-11 00:30:00,
2013-02-10 18:33:00,50.4,50.4,29.61,South,191,0.0,11.0,100,0.08,,-RA,0.35,VWS V14.01,2013-02-11 00:33:00,
2013-02-10 18:38:00,50.5,50.5,29.61,SE,145,4.0,11.0,100,0.08,,-RA,0.35,VWS V14.01,2013-02-11 00:38:00,
2013-02-10 18:43:00,50.5,50.5,29.64,SSW,211,6.7,11.0,100,0.08,,-RA,0.35,VWS V14.01,2013-02-11 00:43:00,
2013-02-10 18:48:00,50.9,50.9,29.64,SSE,158,5.4,11.0,100,0.08,,-RA,0.35,VWS V14.01,2013-02-11 00:48:00,
2013-02-10 18:53:00,51.1,51.1,29.64,SSW,201,4.0,11.9,100,0.08,,-RA,0.35,VWS V14.01,2013-02-11 00:53:00,
2013-02-10 18:58:00,51.1,51.1,29.67,South,175,3.6,11.9,100,0.08,,-RA,0.35,VWS V14.01,2013-02-11 00:58:00,
2013-02-10 19:00:00,51.6,51.6,29.52,West,263,0.0,11.0,100,0.00,,FEW250,0.35,VWS V14.01,2013-02-11 01:00:00,
2013-02-10 19:03:00,51.1,51.1,29.67,SSW,205,6.7,10.5,100,0.08,,OVC009,0.35,VWS V14.01,2013-02-11 01:03:00,
2013-02-10 19:08:00,51.3,51.3,29.67,South,178,8.7,10.5,100,0.08,,OVC009,0.35,VWS V14.01,2013-02-11 01:08:00,
2013-02-10 19:13:00,51.3,51.3,29.58,SSW,196,5.8,10.5,100,0.08,,OVC009,0.35,VWS V14.01,2013-02-11 01:13:00,
2013-02-10 19:18:00,51.4,51.4,29.58,South,191,8.3,10.5,100,0.08,,OVC009,0.35,VWS V14.01,2013-02-11 01:18:00,
2013-02-10 19:23:00,51.4,51.4,29.58,South,184,10.1,12.3,100,0.08,,OVC009,0.35,VWS V14.01,2013-02-11 01:23:00,
2013-02-10 19:28:00,51.4,51.4,29.49,South,176,0.0,12.3,100,0.08,,OVC009,0.35,VWS V14.01,2013-02-11 01:28:00,
2013-02-10 19:30:00,52.2,52.2,29.49,SSW,202,3.6,10.5,100,0.00,,FEW250,0.35,VWS V14.01,2013-02-11 01:30:00,
2013-02-10 19:33:00,51.4,51.4,29.49,SSW,207,4.0,6.3,100,0.00,,OVC009,0.35,VWS V14.01,2013-02-11 01:33:00,
2013-02-10 19:38:00,51.4,51.4,29.49,SSW,210,9.6,9.6,100,0.00,,OVC009,0.35,VWS V14.01,2013-02-11 01:38:00,
2013-02-10 19:43:00,51.6,51.6,29.43,SSW,198,3.1,10.1,100,0.00,,OVC009,0.35,VWS V14.01,2013-02-11 01:43:00,
2013-02-10 19:48:00,51.4,51.4,29.43,SW,225,0.0,10.1,100,0.00,,OVC009,0.35,VWS V14.01,2013-02-11 01:48:00,
2013-02-10 19:53:00,51.6,51.6,29.43,SSW,197,2.2,10.1,100,0.00,,OVC009,0.35,VWS V14.01,2013-02-11 01:53:00,
2013-02-10 19:58:00,51.6,51.6,29.52,South,190,0.0,11.0,100,0.00,,OVC009,0.35,VWS V14.01,2013-02-11 01:58:00,
2013-02-10 20:00:00,52.2,52.2,29.52,South,188,0.0,10.5,100,0.00,,FEW250,0.35,VWS V14.01,2013-02-11 02:00:00,
2013-02-10 20:03:00,51.6,51.6,29.52,SSW,192,10.1,10.1,100,0.00,,OVC010,0.35,VWS V14.01,2013-02-11 02:03:00,
2013-02-10 20:08:00,51.8,51.8,29.52,South,174,2.2,10.1,100,0.00,,OVC010,0.35,VWS V14.01,2013-02-11 02:08:00,
2013-02-10 20:13:00,51.8,51.8,29.46,SW,223,0.0,10.1,100,0.00,,OVC010,0.35,VWS V14.01,2013-02-11 02:13:00,
2013-02-10 20:18:00,52.0,52.0,29.46,SW,214,8.7,10.5,100,0.00,,OVC010,0.35,VWS V14.01,2013-02-11 02:18:00,
2013-02-10 20:23:00,52.0,52.0,29.46,South,180,0.0,10.5,100,0.00,,OVC010,0.35,VWS V14.01,2013-02-11 02:23:00,
2013-02-10 20:28:00,52.2,52.2,29.49,SSW,206,5.8,10.5,100,0.00,,OVC010,0.35,VWS V14.01,2013-02-11 02:28:00,
2013-02-10 20:30:00,52.2,52.2,29.46,SW,235,5.8,12.8,100,0.00,,FEW250,0.35,VWS V14.01,2013-02-11 02:30:00,
2013-02-10 20:33:00,52.2,52.2,29.49,SE,142,10.5,10.5,100,0.00,,OVC010,0.35,VWS V14.01,2013-02-11 02:33:00,
2013-02-10 20:38:00,52.2,52.2,29.49,South,172,0.0,10.5,100,0.00,,OVC010,0.35,VWS V14.01,2013-02-11 02:38:00,
2013-02-10 20:43:00,52.2,52.2,29.49,South,175,0.0,10.5,100,0.00,,OVC010,0.35,VWS V14.01,2013-02-11 02:43:00,
2013-02-10 20:48:00,52.2,52.2,29.49,SW,229,8.3,10.5,100,0.00,,OVC010,0.35,VWS V14.01,2013-02-11 02:48:00,
2013-02-10 20:53:00,52.2,52.2,29.49,SSE,155,6.7,10.5,100,0.00,,OVC010,0.35,VWS V14.01,2013-02-11 02:53:00,
2013-02-10 20:58:00,52.0,52.0,29.52,SSE,150,10.5,10.5,100,0.00,,OVC010,0.35,VWS V14.01,2013-02-11 02:58:00,
2013-02-10 21:00:00,52.0,52.0,29.55,SSE,160,2.7,10.5,100,0.00,,FEW250,0.35,VWS V14.01,2013-02-11 03:00:00,
2013-02-10 21:03:00,52.2,52.2,29.52,SSW,199,0.0,11.0,100,0.00,,OVC024,0.35,VWS V14.01,2013-02-11 03:03:00,
2013-02-10 21:08:00,52.2,52.2,29.52,SSW,206,3.6,11.0,100,0.00,,OVC024,0.35,VWS V14.01,2013-02-11 03:08:00,
2013-02-10 21:13:00,52.2,52.2,29.49,SW,216,0.0,12.8,100,0.00,,OVC024,0.35,VWS V14.01,2013-02-11 03:13:00,
2013-02-10 21:19:00,52.0,52.0,29.49,SSW,212,5.4,12.8,100,0.00,,OVC024,0.35,VWS V14.01,2013-02-11 03:19:00,
2013-02-10 21:24:00,52.2,52.2,29.49,SW,228,0.0,12.8,100,0.00,,OVC024,0.35,VWS V14.01,2013-02-11 03:24:00,
2013-02-10 21:29:00,52.2,52.2,29.46,SSW,211,8.3,12.8,100,0.00,,OVC024,0.35,VWS V14.01,2013-02-11 03:29:00,
2013-02-10 21:30:00,51.4,51.4,29.64,WSW,245,10.1,11.0,100,0.00,,FEW250,0.35,VWS V14.01,2013-02-11 03:30:00,
2013-02-10 21:34:00,52.2,52.2,29.46,South,182,0.0,6.3,100,0.00,,OVC024,0.35,VWS V14.01,2013-02-11 03:34:00,
2013-02-10 21:39:00,52.2,52.2,29.46,South,191,0.0,10.5,100,0.00,,OVC024,0.35,VWS V14.01,2013-02-11 03:39:00,
2013-02-10 21:44:00,52.2,52.2,29.55,South,178,6.3,10.5,100,0.00,,OVC024,0.35,VWS V14.01,2013-02-11 03:44:00,
2013-02-10 21:49:00,52.2,52.2,29.55,South,179,0.0,10.5,100,0.00,,OVC024,0.35,VWS V14.01,2013-02-11 03:49:00,
2013-02-10 21:54:00,52.2,52.2,29.55,South,190,8.7,10.5,100,0.00,,OVC024,0.35,VWS V14.01,2013-02-11 03:54:00,
2013-02-10 21:59:00,52.0,52.0,29.55,South,180,6.3,10.5,100,0.00,,OVC024,0.35,VWS V14.01,2013-02-11 03:59:00,
2013-02-10 22:00:00,50.9,50.4,29.55,South,189,7.2,13.2,98,0.00,,FEW250,0.35,VWS V14.01,2013-02-11 04:00:00,
2013-02-10 22:04:00,52.0,52.0,29.55,SSW,198,2.7,8.7,100,0.00,,BKN024,0.35,VWS V14.01,2013-02-11 04:04:00,
2013-02-10 22:09:00,51.8,51.8,29.55,SW,214,0.0,11.0,100,0.00,,BKN024,0.35,VWS V14.01,2013-02-11 04:09:00,
2013-02-10 22:14:00,51.6,51.6,29.64,SW,229,7.6,11.0,100,0.00,,BKN024,0.35,VWS V14.01,2013-02-11 04:14:00,
2013-02-10 22:19:00,51.6,51.6,29.64,SSE,167,0.0,11.0,100,0.00,,BKN024,0.35,VWS V14.01,2013-02-11 04:19:00,
2013-02-10 22:24:00,51.6,51.6,29.64,SW,222,0.0,11.0,100,0.00,,BKN024,0.35,VWS V14.01,2013-02-11 04:24:00,
2013-02-10 22:29:00,51.4,51.4,29.64,SW,225,0.0,11.0,100,0.00,,BKN024,0.35,VWS V14.01,2013-02-11 04:29:00,
2013-02-10 22:30:00,49.8,47.0,29.61,SSW,208,9.6,11.9,90,0.00,,FEW250,0.35,VWS V14.01,2013-02-11 04:30:00,
2013-02-10 22:34:00,51.3,51.3,29.64,SW,232,0.0,10.1,100,0.00,,BKN024,0.35,VWS V14.01,2013-02-11 04:34:00,
2013-02-10 22:39:00,51.3,51.3,29.64,SSW,209,2.2,13.2,100,0.00,,BKN024,0.35,VWS V14.01,2013-02-11 04:39:00,
2013-02-10 22:44:00,51.1,50.8,29.52,WNW,289,8.7,13.2,99,0.00,,BKN024,0.35,VWS V14.01,2013-02-11 04:44:00,
2013-02-10 22:49:00,51.1,50.8,29.52,SW,215,0.0,13.2,99,0.00,,BKN024,0.35,VWS V14.01,2013-02-11 04:49:00,
2013-02-10 22:54:00,51.1,50.5,29.52,WSW,245,8.3,13.2,98,0.00,,BKN024,0.35,VWS V14.01,2013-02-11 04:54:00,
2013-02-10 22:59:00,50.9,50.4,29.55,SSW,200,0.0,13.2,98,0.00,,BKN024,0.35,VWS V14.01,2013-02-11 04:59:00,
2013-02-10 23:00:00,50.9,50.4,29.55,South,189,7.2,13.2,98,0.00,,BKN024,0.35,VWS V14.01,2013-02-11 05:00:00,
2013-02-10 23:04:00,50.7,49.3,29.55,SW,216,10.5,11.9,95,0.00,,SCT025,0.35,VWS V14.01,2013-02-11 05:04:00,
2013-02-10 23:09:00,50.5,48.3,29.55,SSW,194,8.1,11.9,92,0.00,,SCT025,0.35,VWS V14.01,2013-02-11 05:09:00,
2013-02-10 23:14:00,50.5,48.0,29.67,SSW,208,11.9,11.9,91,0.00,,SCT025,0.35,VWS V14.01,2013-02-11 05:14:00,
2013-02-10 23:19:00,50.2,47.4,29.67,SSW,195,0.0,11.9,90,0.00,,SCT025,0.35,VWS V14.01,2013-02-11 05:19:00,
2013-02-10 23:24:00,50.2,46.5,29.67,West,263,0.0,11.9,87,0.00,,SCT025,0.35,VWS V14.01,2013-02-11 05:24:00,
2013-02-10 23:29:00,50.0,46.9,29.61,South,178,0.0,11.9,89,0.00,,SCT025,0.35,VWS V14.01,2013-02-11 05:29:00,
2013-02-10 23:30:00,49.8,47.0,29.61,SSW,208,9.6,11.9,90,0.00,,SCT025,0.35,VWS V14.01,2013-02-11 05:30:00,
2013-02-10 23:39:00,49.6,47.1,29.61,WSW,246,6.3,10.5,91,0.00,,SCT025,0.35,VWS V14.01,2013-02-11 05:39:00,
2013-02-10 23:44:00,49.3,45.9,29.61,SW,225,3.1,10.5,88,0.00,,SCT025,0.35,VWS V14.01,2013-02-11 05:44:00,
2013-02-10 23:49:00,49.1,44.8,29.61,SSW,195,3.6,10.5,85,0.00,,SCT025,0.35,VWS V14.01,2013-02-11 05:49:00,
2013-02-10 23:54:00,48.9,43.3,29.61,WSW,258,5.4,10.5,81,0.00,,SCT025,0.35,VWS V14.01,2013-02-11 05:54:00,
2013-02-10 23:59:00,48.7,43.8,29.67,SW,230,0.0,10.5,83,0.00,,SCT025,0.35,VWS V14.01,2013-02-11 05:59:00,